UKOO/ODS METAR and TAF weather

Enter ICAO airport designator
Station Type Date Time Source
UKOO METAR 2019/08/22 04:30 UTC NOAA

UKOO 220430Z 35006MPS CAVOK 23/12 Q1017 R34/090060 NOSIG


Station Type Date Time Source
UKOO Decoded METAR 2019/08/22 04:30 UTC NOAA

Station name not available
Aug 22, 2019 - 12:30 AM EDT / 2019.08.22 0430 UTC
Wind: from the N (350 degrees) at 13 MPH (12 KT):0
Visibility: greater than 7 mile(s):0
Temperature: 73 F (23 C)
Dew Point: 53 F (12 C)
Relative Humidity: 49%
Pressure (altimeter): 30.03 in. Hg (1017 hPa)
ob: UKOO 220430Z 35006MPS CAVOK 23/12 Q1017 R34/090060 NOSIG
cycle: 4

Station Type Date Time Source
UKOO TAF 2019/08/21 18:15 UTC NOAA

TAF UKOO 211703Z 2118/2218 02005G11MPS 6000 SCT020 TX32/2212Z TN20/2202Z
TEMPO 2118/2124 06003MPS
BECMG 2205/2206 36007G14MPS BKN013 SCT020CB

Example: see airport list